Time;durP1;ratioP1;P1;durP2;ratioP2;P2;SDS_P1;SDS_P2;PMS_P1;PMS_P2;Temp;Humidity;BMP_temperature;BMP_pressure;BME280_temperature;BME280_humidity;BME280_pressure;Samples;Min_cycle;Max_cycle;Signal;HPM_P1;HPM_P2
2023/01/30 00:00:30;;;;;;;15.27;13.77;;;;;;;2.57;94.09;100452.47;5019049;28;20289;-81
2023/01/30 00:02:57;;;;;;;15.43;13.57;;;;;;;2.58;94.20;100419.00;5019585;28;20203;-83
2023/01/30 00:05:24;;;;;;;14.83;13.33;;;;;;;2.51;94.54;100390.56;5018707;28;20231;-81
2023/01/30 00:07:50;;;;;;;17.40;13.30;;;;;;;2.64;94.39;100373.56;5020043;28;20223;-81
2023/01/30 00:10:17;;;;;;;14.30;12.80;;;;;;;2.55;94.36;100370.00;5018986;28;20264;-80
2023/01/30 00:12:43;;;;;;;15.73;14.10;;;;;;;2.69;94.04;100349.53;5019785;28;20348;-83
2023/01/30 00:15:10;;;;;;;16.97;13.83;;;;;;;2.69;93.96;100328.94;5019828;28;20211;-84
2023/01/30 00:17:36;;;;;;;14.97;13.47;;;;;;;2.78;93.81;100331.63;5020734;28;20252;-82
2023/01/30 00:20:05;;;;;;;14.60;13.10;;;;;;;2.73;93.08;100330.69;5019582;28;20231;-81
2023/01/30 00:22:31;;;;;;;15.37;13.70;;;;;;;2.77;92.90;100349.63;5019330;28;20635;-82
2023/01/30 00:24:57;;;;;;;17.20;14.13;;;;;;;2.77;92.80;100340.22;5019825;28;20210;-83
2023/01/30 00:27:24;;;;;;;14.90;13.40;;;;;;;2.72;93.09;100374.50;5019602;28;20285;-81
2023/01/30 00:29:50;;;;;;;15.30;13.60;;;;;;;2.71;92.81;100360.75;5019376;28;20287;-81
2023/01/30 00:32:16;;;;;;;14.63;13.23;;;;;;;2.65;93.20;100381.28;5019435;28;20693;-83
2023/01/30 00:34:43;;;;;;;15.20;13.70;;;;;;;2.59;93.29;100379.50;5026242;28;20261;-84
2023/01/30 00:37:10;;;;;;;14.70;13.00;;;;;;;2.74;93.24;100377.97;5018856;28;20222;-84
2023/01/30 00:39:36;;;;;;;14.53;12.97;;;;;;;2.78;93.27;100370.28;5018980;28;20258;-80
2023/01/30 00:47:31;;;;;;;17.17;14.07;;;;;;;2.81;93.04;100360.84;5019026;28;20214;-84
2023/01/30 00:49:58;;;;;;;15.83;14.23;;;;;;;2.80;93.77;100341.09;5018876;28;20261;-81
2023/01/30 00:52:25;;;;;;;17.97;14.27;;;;;;;2.90;93.67;100315.41;5018910;28;20203;-81
2023/01/30 00:54:51;;;;;;;17.60;15.07;;;;;;;2.95;93.34;100310.31;5019001;28;20265;-81
2023/01/30 00:57:18;;;;;;;15.60;14.00;;;;;;;2.91;93.22;100296.50;5018884;28;20281;-83
2023/01/30 00:59:44;;;;;;;17.67;14.50;;;;;;;2.87;93.59;100279.28;5017341;28;20224;-86
2023/01/30 01:02:10;;;;;;;15.63;13.93;;;;;;;2.96;93.13;100265.63;5018080;28;20627;-85
2023/01/30 01:04:42;;;;;;;17.73;14.27;;;;;;;3.01;93.48;100276.84;5018528;28;20268;-84
2023/01/30 01:07:08;;;;;;;17.17;14.63;;;;;;;3.02;93.37;100275.16;5018321;28;20693;-83
2023/01/30 01:09:36;;;;;;;18.23;14.40;;;;;;;2.98;93.65;100251.91;5017968;28;20253;-84
2023/01/30 01:12:03;;;;;;;17.97;14.93;;;;;;;2.96;93.76;100253.59;5017815;28;20265;-83
2023/01/30 01:14:29;;;;;;;16.53;14.80;;;;;;;2.91;94.07;100218.31;5018186;28;20207;-82
2023/01/30 01:16:55;;;;;;;16.47;14.70;;;;;;;3.03;94.26;100205.53;5018483;28;20231;-84
2023/01/30 01:19:22;;;;;;;16.97;15.23;;;;;;;3.09;93.90;100212.44;5017446;28;20230;-85
2023/01/30 01:21:48;;;;;;;17.00;15.20;;;;;;;3.11;93.88;100226.22;5018045;28;20215;-82
2023/01/30 01:24:15;;;;;;;18.57;15.83;;;;;;;3.07;94.37;100235.66;5018370;28;20266;-82
2023/01/30 01:26:44;;;;;;;17.80;13.80;;;;;;;3.03;94.59;100227.88;5017424;28;20281;-86
2023/01/30 01:29:12;;;;;;;16.77;14.73;;;;;;;2.99;94.94;100214.09;5017894;28;20266;-81
2023/01/30 01:31:38;;;;;;;16.83;14.97;;;;;;;3.04;95.60;100214.16;5018364;28;20211;-82
2023/01/30 01:34:05;;;;;;;21.33;16.07;;;;;;;3.01;95.52;100216.69;5017861;28;20281;-81
2023/01/30 01:36:31;;;;;;;18.27;15.30;;;;;;;2.98;95.96;100197.75;5028555;28;20241;-82
2023/01/30 01:49:27;;;;;;;21.60;15.23;;;;;;;2.96;98.82;100054.22;5017385;28;20573;-82
2023/01/30 01:51:58;;;;;;;16.93;15.13;;;;;;;3.03;99.21;100026.75;5016312;28;20268;-82
2023/01/30 01:54:32;;;;;;;23.07;16.37;;;;;;;2.97;100.00;99994.06;5017180;28;20210;-80
2023/01/30 01:57:03;;;;;;;18.60;14.83;;;;;;;3.11;99.60;99958.03;5010653;28;20231;-82
2023/01/30 01:59:33;;;;;;;17.27;15.30;;;;;;;3.06;99.74;99934.81;5016690;28;20223;-81
2023/01/30 02:02:05;;;;;;;18.07;15.53;;;;;;;3.14;99.50;99940.00;5017435;28;20194;-83
2023/01/30 02:07:21;;;;;;;17.77;14.87;;;;;;;3.18;99.80;99928.84;5016339;28;20635;-83
2023/01/30 02:09:50;;;;;;;16.57;14.50;;;;;;;3.05;100.00;99947.69;5017051;28;20203;-82
2023/01/30 02:12:17;;;;;;;21.03;16.37;;;;;;;3.02;100.00;99912.47;5017745;28;20677;-85
2023/01/30 02:14:44;;;;;;;18.37;15.93;;;;;;;3.00;100.00;99880.66;5017404;28;20690;-84
2023/01/30 02:17:10;;;;;;;20.37;15.57;;;;;;;3.03;100.00;99877.22;5017871;28;20222;-81
2023/01/30 02:19:48;;;;;;;18.33;15.27;;;;;;;3.09;100.00;99865.22;5017411;28;20227;-83
2023/01/30 02:22:58;;;;;;;17.10;15.37;;;;;;;3.12;100.00;99885.00;5017948;28;20257;-82
2023/01/30 02:25:54;;;;;;;17.67;14.97;;;;;;;2.94;100.00;99870.34;5017175;28;20289;-81
2023/01/30 02:28:48;;;;;;;17.93;15.07;;;;;;;3.12;100.00;99857.47;5021538;28;20207;-82
2023/01/30 02:31:31;;;;;;;16.17;14.43;;;;;;;3.14;100.00;99884.13;4996518;28;20265;-81
2023/01/30 02:34:11;;;;;;;17.23;14.97;;;;;;;3.25;100.00;99891.03;4997031;28;20736;-82
2023/01/30 02:36:49;;;;;;;16.90;13.97;;;;;;;3.14;100.00;99876.38;4996804;28;20232;-81
2023/01/30 02:39:23;;;;;;;15.13;13.63;;;;;;;3.29;100.00;99860.09;4997045;28;20247;-81
2023/01/30 02:42:00;;;;;;;16.60;14.37;;;;;;;3.37;100.00;99870.44;4996744;28;20740;-81
2023/01/30 02:44:34;;;;;;;15.93;14.33;;;;;;;3.43;100.00;99864.38;4997925;28;20206;-81
2023/01/30 02:47:06;;;;;;;16.10;14.40;;;;;;;3.32;100.00;99880.72;4996870;28;20282;-82
2023/01/30 02:49:39;;;;;;;15.30;13.70;;;;;;;3.42;100.00;99873.84;4997119;28;20242;-81
2023/01/30 02:52:08;;;;;;;16.53;14.27;;;;;;;3.46;100.00;99865.25;4999044;28;20197;-82
2023/01/30 02:54:35;;;;;;;16.17;14.13;;;;;;;3.55;100.00;99861.84;5015156;28;20233;-84
2023/01/30 02:57:01;;;;;;;16.10;13.13;;;;;;;3.55;100.00;99883.34;5016864;28;20234;-83
2023/01/30 02:59:32;;;;;;;15.27;13.63;;;;;;;3.60;100.00;99891.06;5016036;28;20285;-81
2023/01/30 03:02:26;;;;;;;15.83;14.07;;;;;;;3.56;100.00;99874.72;5016380;28;20208;-81
2023/01/30 03:05:08;;;;;;;17.00;13.47;;;;;;;3.52;100.00;99859.25;5017049;28;20211;-82
2023/01/30 03:07:43;;;;;;;18.70;13.67;;;;;;;3.53;100.00;99864.41;5016435;28;20253;-81
2023/01/30 03:10:22;;;;;;;17.83;14.70;;;;;;;3.62;100.00;99860.09;5016480;28;20205;-84
2023/01/30 03:12:54;;;;;;;16.57;14.87;;;;;;;3.66;100.00;99856.66;5016063;28;20234;-83
2023/01/30 03:15:28;;;;;;;15.00;13.27;;;;;;;3.71;100.00;99873.03;5016168;28;20253;-83
2023/01/30 03:17:57;;;;;;;15.37;13.70;;;;;;;3.62;100.00;99862.69;5015914;28;20265;-82
2023/01/30 03:20:23;;;;;;;14.67;13.13;;;;;;;3.68;100.00;99866.13;5018731;28;20725;-81
2023/01/30 03:22:50;;;;;;;14.87;13.47;;;;;;;3.74;100.00;99879.03;5020271;28;20211;-82
2023/01/30 03:25:20;;;;;;;15.13;13.37;;;;;;;3.77;100.00;99868.72;5027247;28;20209;-80
2023/01/30 03:27:48;;;;;;;19.93;15.30;;;;;;;3.70;100.00;99855.81;5039205;28;20214;-80
2023/01/30 03:30:15;;;;;;;19.93;14.37;;;;;;;3.72;100.00;99851.50;5039086;28;20206;-82
2023/01/30 03:32:41;;;;;;;16.73;13.83;;;;;;;3.76;100.00;99830.84;5039423;28;20206;-82
2023/01/30 03:35:09;;;;;;;19.67;15.50;;;;;;;3.81;100.00;99815.38;5039024;28;20210;-83
2023/01/30 03:37:36;;;;;;;18.33;13.73;;;;;;;3.73;100.00;99806.78;5039301;28;20211;-82
2023/01/30 03:40:03;;;;;;;15.80;14.17;;;;;;;3.80;100.00;99794.69;5038867;28;20246;-83
2023/01/30 03:42:30;;;;;;;18.50;14.50;;;;;;;3.76;100.00;99789.53;5039913;28;20209;-80
2023/01/30 03:44:56;;;;;;;17.37;15.57;;;;;;;3.80;100.00;99767.16;5039111;28;20253;-85
2023/01/30 03:47:22;;;;;;;17.47;15.03;;;;;;;3.77;100.00;99744.81;5039120;28;20238;-84
2023/01/30 03:49:49;;;;;;;19.43;15.20;;;;;;;3.69;100.00;99741.38;5038651;28;20280;-81
2023/01/30 03:52:16;;;;;;;17.77;15.97;;;;;;;3.78;100.00;99702.63;5039304;28;20214;-83
2023/01/30 03:54:42;;;;;;;20.20;16.20;;;;;;;3.86;100.00;99700.03;5031235;28;20210;-83
2023/01/30 03:57:09;;;;;;;15.47;13.93;;;;;;;3.80;100.00;99705.22;5039933;28;20231;-84
2023/01/30 03:59:35;;;;;;;15.20;13.53;;;;;;;3.73;100.00;99698.38;5035309;28;20212;-85
2023/01/30 04:02:02;;;;;;;13.80;12.47;;;;;;;3.77;100.00;99706.09;5012048;28;20610;-82
2023/01/30 04:04:28;;;;;;;14.20;11.20;;;;;;;3.67;100.00;99704.41;5034733;28;20202;-82
2023/01/30 04:06:54;;;;;;;13.70;12.27;;;;;;;3.76;100.00;99694.03;5038031;28;20309;-80
2023/01/30 04:09:22;;;;;;;13.07;11.73;;;;;;;3.77;100.00;99680.28;5038389;28;20214;-83
2023/01/30 04:11:48;;;;;;;15.10;13.50;;;;;;;3.81;100.00;99680.28;5038511;28;20202;-84
2023/01/30 04:14:15;;;;;;;14.50;13.03;;;;;;;3.81;100.00;99686.28;5037791;28;20206;-83
2023/01/30 04:16:41;;;;;;;19.30;14.23;;;;;;;3.85;100.00;99681.97;5037865;28;20230;-82
2023/01/30 04:19:07;;;;;;;16.20;13.47;;;;;;;3.84;100.00;99672.50;5023268;28;20202;-82
2023/01/30 04:21:34;;;;;;;15.73;13.93;;;;;;;3.87;100.00;99672.50;5017612;28;20238;-81
2023/01/30 04:24:00;;;;;;;14.10;12.60;;;;;;;3.91;100.00;99656.13;5018002;28;20250;-84
2023/01/30 04:26:28;;;;;;;13.73;12.23;;;;;;;3.76;100.00;99672.53;5018163;28;20318;-80
2023/01/30 04:28:54;;;;;;;14.97;12.53;;;;;;;3.75;100.00;99652.75;5018033;28;20276;-82
2023/01/30 04:31:21;;;;;;;14.40;11.93;;;;;;;3.73;100.00;99652.75;5016977;28;20199;-80
2023/01/30 04:33:47;;;;;;;14.03;12.53;;;;;;;3.78;100.00;99645.84;5017264;28;20203;-82
2023/01/30 04:36:14;;;;;;;13.90;12.47;;;;;;;3.84;100.00;99644.09;5018099;28;20232;-83
2023/01/30 04:38:40;;;;;;;11.90;10.70;;;;;;;3.83;100.00;99645.84;5018169;28;20679;-83
2023/01/30 04:41:06;;;;;;;11.60;10.40;;;;;;;3.90;100.00;99638.91;5017120;28;20227;-81
2023/01/30 04:43:34;;;;;;;11.37;10.27;;;;;;;3.82;100.00;99645.84;5017490;28;20632;-79
2023/01/30 04:46:00;;;;;;;10.90;9.90;;;;;;;3.81;100.00;99647.56;5017346;28;20239;-83
2023/01/30 04:48:27;;;;;;;10.83;9.83;;;;;;;3.84;100.00;99649.28;5017796;28;20210;-80
2023/01/30 04:50:56;;;;;;;10.60;8.53;;;;;;;3.86;100.00;99650.13;5016694;28;20207;-83
2023/01/30 04:53:23;;;;;;;9.83;8.97;;;;;;;3.84;100.00;99628.63;5017571;28;20670;-86
2023/01/30 04:55:49;;;;;;;9.33;8.43;;;;;;;3.88;100.00;99651.81;5017520;28;20228;-84
2023/01/30 04:58:18;;;;;;;8.83;8.03;;;;;;;3.94;100.00;99638.03;5017481;28;20241;-80
2023/01/30 05:00:46;;;;;;;9.60;8.70;;;;;;;3.96;100.00;99644.94;5017130;28;20239;-81
2023/01/30 05:03:12;;;;;;;9.10;8.30;;;;;;;3.98;100.00;99637.16;5016946;28;20208;-81
2023/01/30 05:05:38;;;;;;;9.77;8.93;;;;;;;3.97;100.00;99645.78;5016793;28;20235;-82
2023/01/30 05:08:05;;;;;;;9.33;8.43;;;;;;;4.00;100.00;99635.41;5016985;28;20208;-82
2023/01/30 05:10:31;;;;;;;9.47;8.67;;;;;;;4.01;100.00;99664.69;5017054;28;20208;-82
2023/01/30 05:13:01;;;;;;;10.10;9.10;;;;;;;3.99;100.00;99636.28;5017485;28;20636;-82
2023/01/30 05:15:28;;;;;;;10.03;9.13;;;;;;;4.03;100.00;99630.25;5017108;28;20228;-82
2023/01/30 05:17:55;;;;;;;9.50;8.60;;;;;;;4.08;100.00;99620.72;5019897;28;20273;-83
2023/01/30 05:20:22;;;;;;;9.10;8.30;;;;;;;4.08;100.00;99637.97;5036404;28;20289;-82
2023/01/30 05:22:48;;;;;;;10.30;9.40;;;;;;;4.06;100.00;99637.09;5037397;28;20244;-83
2023/01/30 05:25:14;;;;;;;10.60;9.60;;;;;;;4.08;100.00;99631.06;5037085;28;20214;-84
2023/01/30 05:27:41;;;;;;;11.17;10.17;;;;;;;4.10;100.00;99624.19;5037004;28;20213;-81
2023/01/30 05:30:09;;;;;;;11.13;10.13;;;;;;;4.14;100.00;99622.44;5035868;28;20630;-80
2023/01/30 05:32:35;;;;;;;11.03;9.97;;;;;;;4.22;100.00;99619.81;5035833;28;20214;-80
2023/01/30 05:35:03;;;;;;;10.53;9.53;;;;;;;4.14;100.00;99612.09;5036545;28;20272;-82
2023/01/30 05:37:29;;;;;;;10.03;9.13;;;;;;;4.09;100.00;99621.63;5037109;28;20639;-82
2023/01/30 05:39:56;;;;;;;11.90;9.60;;;;;;;4.15;100.00;99626.75;5036721;28;20220;-83
2023/01/30 05:42:22;;;;;;;10.17;9.27;;;;;;;4.13;100.00;99636.22;5035774;28;20206;-82
2023/01/30 05:44:48;;;;;;;9.80;8.90;;;;;;;4.15;100.00;99637.91;5032785;28;20207;-81
2023/01/30 05:47:14;;;;;;;9.23;8.43;;;;;;;4.25;100.00;99637.88;5015953;28;20242;-82
2023/01/30 05:49:41;;;;;;;9.13;8.10;;;;;;;4.24;100.00;99644.78;5016291;28;20211;-83
2023/01/30 05:52:09;;;;;;;9.23;8.40;;;;;;;4.30;100.00;99647.31;5015819;28;20206;-81
2023/01/30 05:54:36;;;;;;;9.57;8.73;;;;;;;4.27;100.00;99655.06;5016584;28;20203;-81
2023/01/30 05:57:02;;;;;;;9.23;8.33;;;;;;;4.21;100.00;99654.25;5016767;28;20253;-83
2023/01/30 05:59:28;;;;;;;10.70;9.80;;;;;;;4.18;100.00;99657.69;5016017;28;20212;-83
2023/01/30 06:01:55;;;;;;;9.57;8.67;;;;;;;4.21;100.00;99644.78;5016134;28;20783;-82
2023/01/30 06:04:21;;;;;;;8.97;8.17;;;;;;;4.22;100.00;99651.66;5016405;28;20209;-84
2023/01/30 06:06:49;;;;;;;9.50;8.60;;;;;;;4.15;100.00;99655.16;5015852;28;20579;-81
2023/01/30 06:09:16;;;;;;;8.60;7.90;;;;;;;4.20;100.00;99661.13;5015989;28;20702;-82
2023/01/30 06:11:43;;;;;;;9.03;8.17;;;;;;;4.21;100.00;99662.00;5028688;28;20202;-84
2023/01/30 06:14:09;;;;;;;10.37;9.47;;;;;;;4.23;100.00;99653.38;5035162;28;20259;-81
2023/01/30 06:16:35;;;;;;;10.40;9.37;;;;;;;4.18;100.00;99657.69;5035830;28;20227;-84
2023/01/30 06:19:02;;;;;;;11.53;10.43;;;;;;;4.16;100.00;99649.97;5035442;28;20284;-80
2023/01/30 06:21:28;;;;;;;10.10;9.13;;;;;;;4.16;100.00;99651.69;5028634;28;20238;-84
2023/01/30 06:23:54;;;;;;;11.03;9.50;;;;;;;4.14;100.00;99650.84;5015130;28;20625;-83
2023/01/30 06:26:22;;;;;;;9.93;8.93;;;;;;;4.14;100.00;99643.97;5015404;28;20231;-82
2023/01/30 06:28:48;;;;;;;11.00;9.90;;;;;;;4.16;100.00;99633.59;5009862;28;20202;-84
2023/01/30 06:31:15;;;;;;;10.30;9.30;;;;;;;4.08;100.00;99625.91;5005160;28;20211;-83
2023/01/30 06:33:42;;;;;;;10.27;9.17;;;;;;;4.17;100.00;99618.09;5006392;28;20257;-83
2023/01/30 06:36:09;;;;;;;9.80;8.90;;;;;;;4.19;100.00;99628.44;5004838;28;20257;-84
2023/01/30 06:38:35;;;;;;;9.23;8.43;;;;;;;4.27;100.00;99623.22;5006978;28;20203;-84
2023/01/30 06:41:02;;;;;;;8.83;8.03;;;;;;;4.31;100.00;99638.69;5012754;28;20674;-83
2023/01/30 06:43:29;;;;;;;10.40;7.30;;;;;;;4.41;100.00;99651.56;5009149;28;20227;-86
2023/01/30 06:45:58;;;;;;;9.97;6.30;;;;;;;4.47;100.00;99675.63;5006332;28;20230;-83
2023/01/30 06:48:24;;;;;;;9.00;4.43;;;;;;;4.52;100.00;99707.47;5007162;28;20203;-84
2023/01/30 06:50:51;;;;;;;3.13;2.80;;;;;;;4.55;100.00;99729.84;5006166;28;20693;-82
2023/01/30 06:53:17;;;;;;;4.57;3.00;;;;;;;4.51;100.00;99747.09;5005258;28;20203;-86
2023/01/30 06:55:43;;;;;;;4.63;2.87;;;;;;;4.52;100.00;99766.91;5005496;28;20219;-82
2023/01/30 06:58:13;;;;;;;3.10;2.80;;;;;;;4.45;100.00;99752.28;5007849;28;20210;-82
2023/01/30 07:00:42;;;;;;;2.93;2.73;;;;;;;4.42;100.00;99747.16;5004717;28;20211;-83
2023/01/30 07:03:11;;;;;;;3.97;3.23;;;;;;;4.45;100.00;99733.34;5006672;28;20266;-83
2023/01/30 07:05:38;;;;;;;4.23;3.73;;;;;;;4.42;100.00;99735.94;5007458;28;20286;-83
2023/01/30 07:08:04;;;;;;;4.30;3.80;;;;;;;4.40;100.00;99717.88;5004101;28;20415;-83
2023/01/30 07:10:31;;;;;;;4.53;3.93;;;;;;;4.42;100.00;99717.84;5006652;28;20265;-82
2023/01/30 07:12:57;;;;;;;4.50;3.77;;;;;;;4.51;100.00;99725.56;5010155;28;20209;-83
2023/01/30 07:15:24;;;;;;;4.30;3.90;;;;;;;4.55;100.00;99750.53;5005376;28;20195;-83
2023/01/30 07:17:51;;;;;;;4.83;3.90;;;;;;;4.54;100.00;99764.31;5005183;28;20198;-83
2023/01/30 07:20:18;;;;;;;3.57;2.87;;;;;;;4.59;100.00;99796.16;5004032;28;20203;-85
2023/01/30 07:22:49;;;;;;;5.40;2.60;;;;;;;4.72;100.00;99854.69;5005456;28;20220;-82
2023/01/30 07:25:16;;;;;;;6.53;3.17;;;;;;;4.74;100.00;99877.97;5006454;28;20208;-84
2023/01/30 07:27:42;;;;;;;6.50;3.30;;;;;;;4.73;100.00;99876.22;5008058;28;20205;-85
2023/01/30 07:30:10;;;;;;;4.23;2.40;;;;;;;4.78;100.00;99924.47;5002563;28;20674;-82
2023/01/30 07:32:36;;;;;;;5.37;2.60;;;;;;;4.77;100.00;99937.41;5004020;28;20635;-83
2023/01/30 07:35:04;;;;;;;5.40;2.90;;;;;;;4.72;99.41;99955.53;5005229;28;20680;-81
2023/01/30 07:37:30;;;;;;;4.07;2.67;;;;;;;4.71;99.97;99946.03;5005377;28;20195;-78
2023/01/30 07:39:57;;;;;;;7.07;3.20;;;;;;;4.81;99.98;99956.34;5005412;28;20199;-81
2023/01/30 07:42:23;;;;;;;6.25;3.00;;;;;;;4.80;100.00;99949.44;5008238;28;20456;-82
2023/01/30 07:44:49;;;;;;;7.10;3.20;;;;;;;4.85;99.49;99951.16;5007429;28;20686;-81
2023/01/30 07:47:18;;;;;;;5.73;2.57;;;;;;;4.70;98.78;99982.25;5005883;28;20293;-82
2023/01/30 07:49:45;;;;;;;7.03;3.10;;;;;;;4.71;98.87;99983.94;5006592;28;20574;-83
2023/01/30 07:52:12;;;;;;;4.87;1.93;;;;;;;4.71;97.65;100000.31;4998412;28;20200;-82
2023/01/30 07:54:39;;;;;;;6.33;2.67;;;;;;;4.74;97.66;100007.22;4995775;28;20292;-80
2023/01/30 07:57:05;;;;;;;9.40;2.77;;;;;;;4.73;97.87;100003.75;4995885;28;20228;-81
2023/01/30 07:59:31;;;;;;;4.93;2.40;;;;;;;4.66;98.03;99994.31;4996016;28;20208;-82
2023/01/30 08:01:58;;;;;;;5.90;2.67;;;;;;;4.73;97.18;100008.94;4996706;28;20224;-82
2023/01/30 08:04:24;;;;;;;7.33;3.20;;;;;;;4.78;96.73;100003.78;4995849;28;20213;-80
2023/01/30 08:06:50;;;;;;;5.60;2.47;;;;;;;4.74;97.31;100005.50;4998893;28;20230;-80
2023/01/30 08:09:18;;;;;;;4.40;2.60;;;;;;;4.66;97.93;99993.44;5000807;28;20262;-80
2023/01/30 08:11:44;;;;;;;5.77;2.80;;;;;;;4.59;98.01;99982.25;5014050;28;20232;-80
2023/01/30 08:14:11;;;;;;;3.47;2.30;;;;;;;4.75;96.20;100009.78;5020066;28;20230;-80
2023/01/30 08:16:37;;;;;;;7.90;2.00;;;;;;;4.80;94.54;100060.63;5019763;28;20231;-81
2023/01/30 08:19:04;;;;;;;4.10;1.83;;;;;;;4.82;95.03;100053.75;5019851;28;20204;-82
2023/01/30 08:21:31;;;;;;;6.00;2.53;;;;;;;4.82;94.86;100058.94;5019430;28;20227;-81
2023/01/30 08:23:57;;;;;;;6.60;2.60;;;;;;;4.90;96.07;100052.88;5018454;28;20208;-82
2023/01/30 08:26:25;;;;;;;4.73;2.57;;;;;;;4.85;94.94;100067.53;5018753;28;20227;-80
2023/01/30 08:28:51;;;;;;;6.53;3.00;;;;;;;4.88;94.90;100059.78;5020401;28;20265;-80
2023/01/30 08:31:18;;;;;;;8.40;2.53;;;;;;;4.87;94.15;100089.06;5019587;28;20290;-80
2023/01/30 08:33:44;;;;;;;10.87;3.03;;;;;;;4.96;92.99;100116.66;5020004;28;20203;-83
2023/01/30 08:36:11;;;;;;;6.13;2.27;;;;;;;5.04;92.18;100145.09;5019377;28;20230;-83
2023/01/30 08:38:37;;;;;;;6.33;2.20;;;;;;;5.10;91.28;100169.22;5018830;28;20208;-81
2023/01/30 08:41:05;;;;;;;6.87;1.60;;;;;;;5.07;90.24;100192.50;5019020;28;20204;-82
2023/01/30 08:43:33;;;;;;;12.60;3.00;;;;;;;5.17;88.86;100227.88;5019163;28;20205;-81
2023/01/30 08:45:59;;;;;;;6.30;1.93;;;;;;;5.10;88.49;100264.09;5019068;28;20240;-81
2023/01/30 08:48:26;;;;;;;8.07;2.87;;;;;;;5.06;87.79;100272.72;5019262;28;20228;-81
2023/01/30 08:50:53;;;;;;;9.27;1.90;;;;;;;5.11;87.38;100294.25;5019225;28;20560;-81
2023/01/30 08:53:19;;;;;;;6.67;2.60;;;;;;;5.21;87.28;100302.91;5019071;28;20210;-82
2023/01/30 08:55:46;;;;;;;9.50;2.03;;;;;;;5.14;87.27;100307.22;5018144;28;20362;-81
2023/01/30 08:58:12;;;;;;;9.70;1.73;;;;;;;5.22;87.27;100312.41;5018371;28;20224;-81
2023/01/30 09:00:43;;;;;;;5.90;2.10;;;;;;;5.25;85.65;100339.16;5018528;28;20208;-81
2023/01/30 09:03:09;;;;;;;7.50;1.80;;;;;;;5.32;86.76;100340.00;5017441;28;20260;-79
2023/01/30 09:05:37;;;;;;;13.60;2.33;;;;;;;5.21;87.97;100328.78;5018031;28;20227;-81
2023/01/30 09:08:04;;;;;;;7.93;2.27;;;;;;;5.18;87.86;100308.94;5018465;28;20207;-80
2023/01/30 09:10:30;;;;;;;5.50;1.77;;;;;;;5.26;85.87;100332.25;5018167;28;20210;-81
2023/01/30 09:12:57;;;;;;;13.03;2.60;;;;;;;5.26;84.79;100360.72;5017871;28;20207;-83
2023/01/30 09:15:23;;;;;;;12.67;1.83;;;;;;;5.31;83.59;100405.56;5017328;28;20221;-80
2023/01/30 09:17:52;;;;;;;6.87;1.57;;;;;;;5.30;82.14;100424.56;5018552;28;20209;-81
2023/01/30 09:20:19;;;;;;;8.07;1.90;;;;;;;5.34;83.02;100431.47;5013477;28;20271;-81
2023/01/30 09:22:46;;;;;;;6.63;2.37;;;;;;;5.30;83.20;100440.94;5005731;28;20725;-80
2023/01/30 09:25:13;;;;;;;5.53;1.67;;;;;;;5.34;83.14;100437.50;5008347;28;20201;-81
2023/01/30 09:27:43;;;;;;;4.87;1.83;;;;;;;5.40;83.80;100415.09;5010360;28;20210;-83
2023/01/30 09:30:10;;;;;;;6.03;2.07;;;;;;;5.37;82.71;100423.69;5018320;28;20210;-82
2023/01/30 09:32:37;;;;;;;4.27;1.70;;;;;;;5.33;82.80;100425.44;5018255;28;20203;-79
2023/01/30 09:35:05;;;;;;;11.03;2.57;;;;;;;5.37;83.05;100428.88;4323884;28;10000724;-82
2023/01/30 09:37:31;;;;;;;7.50;2.47;;;;;;;5.36;82.54;100430.59;5007486;28;20205;-81
2023/01/30 09:39:58;;;;;;;8.90;1.90;;;;;;;5.48;81.11;100470.31;5005857;28;20225;-81
2023/01/30 09:42:50;;;;;;;9.70;1.87;;;;;;;5.46;80.78;100479.81;5012819;28;20230;-83
2023/01/30 09:45:34;;;;;;;8.37;1.67;;;;;;;5.49;81.72;100482.38;5014290;28;20215;-83
2023/01/30 09:48:10;;;;;;;14.93;2.30;;;;;;;5.46;81.53;100475.50;5014495;28;20210;-80
2023/01/30 09:50:52;;;;;;;10.63;2.07;;;;;;;5.52;81.14;100482.41;5014750;28;20218;-82
2023/01/30 09:53:25;;;;;;;7.60;1.57;;;;;;;5.56;79.55;100513.47;5016433;28;20318;-81
2023/01/30 09:55:52;;;;;;;7.77;3.23;;;;;;;5.63;77.82;100529.91;5016273;28;20231;-80
2023/01/30 09:58:20;;;;;;;4.73;1.83;;;;;;;5.61;78.09;100556.66;5016231;28;20217;-81
2023/01/30 10:00:49;;;;;;;4.80;1.97;;;;;;;5.56;79.78;100557.50;5016222;28;20284;-80
2023/01/30 10:03:18;;;;;;;5.50;1.73;;;;;;;5.55;79.65;100550.59;5007164;28;20226;-81
2023/01/30 10:05:49;;;;;;;6.77;2.00;;;;;;;5.58;79.60;100544.56;5006901;28;20288;-83
2023/01/30 10:08:29;;;;;;;7.70;2.40;;;;;;;5.66;80.67;100511.78;5015511;28;20683;-82
2023/01/30 10:11:05;;;;;;;5.33;1.83;;;;;;;5.65;79.76;100510.06;5014165;28;20217;-81
2023/01/30 10:13:44;;;;;;;10.57;2.00;;;;;;;5.63;79.33;100510.91;5016218;28;20201;-80
2023/01/30 10:16:17;;;;;;;7.40;2.30;;;;;;;5.53;79.22;100497.06;5015724;28;20304;-82
2023/01/30 10:19:00;;;;;;;6.80;1.93;;;;;;;5.56;79.10;100522.97;5015979;28;20700;-81
2023/01/30 10:21:36;;;;;;;13.80;2.93;;;;;;;5.50;79.16;100521.22;5015206;28;20215;-83
2023/01/30 10:24:17;;;;;;;6.10;1.70;;;;;;;5.33;83.55;100461.66;5015838;28;20646;-81
2023/01/30 10:26:44;;;;;;;8.23;2.17;;;;;;;5.21;83.00;100375.34;5015367;28;20673;-81
2023/01/30 10:29:17;;;;;;;7.37;2.10;;;;;;;5.24;82.27;100386.59;5015692;28;20211;-81
2023/01/30 10:31:47;;;;;;;6.93;1.57;;;;;;;5.36;81.30;100391.78;5015874;28;20200;-82
2023/01/30 10:34:18;;;;;;;4.47;1.57;;;;;;;5.46;80.50;100418.53;5015885;28;20220;-80
2023/01/30 10:36:52;;;;;;;7.17;2.00;;;;;;;5.52;80.26;100425.44;5016203;28;21000;-81
2023/01/30 10:39:24;;;;;;;7.10;2.03;;;;;;;5.55;80.41;100425.47;5015501;28;20207;-83
2023/01/30 10:41:56;;;;;;;9.33;2.23;;;;;;;5.65;79.44;100449.63;5015385;28;20267;-82
2023/01/30 10:44:23;;;;;;;6.10;1.83;;;;;;;5.76;80.78;100446.19;5015251;28;20211;-82
2023/01/30 10:47:14;;;;;;;8.77;1.67;;;;;;;5.68;79.00;100460.84;5015295;28;20310;-82
2023/01/30 10:49:44;;;;;;;10.27;2.67;;;;;;;5.72;78.01;100474.69;5015240;28;20206;-81
2023/01/30 10:52:26;;;;;;;9.00;2.53;;;;;;;5.69;78.35;100472.97;5014978;28;20212;-83
2023/01/30 10:55:02;;;;;;;8.97;2.23;;;;;;;5.77;77.25;100485.91;5015526;28;20212;-83
2023/01/30 10:57:47;;;;;;;12.27;1.87;;;;;;;5.70;78.30;100460.88;5015620;28;20257;-82
2023/01/30 11:00:22;;;;;;;9.60;2.67;;;;;;;5.52;79.53;100436.66;5015145;28;20269;-82
2023/01/30 11:02:58;;;;;;;8.47;2.20;;;;;;;5.48;80.51;100436.66;5015401;28;20749;-82
2023/01/30 11:05:27;;;;;;;6.33;1.57;;;;;;;5.25;83.88;100366.72;5008861;28;20311;-81
2023/01/30 11:07:55;;;;;;;7.67;1.70;;;;;;;4.74;88.21;100256.28;5002745;28;20231;-79
2023/01/30 11:10:24;;;;;;;6.70;1.83;;;;;;;4.76;91.01;100145.97;5004363;28;20216;-81
2023/01/30 11:12:53;;;;;;;8.33;2.10;;;;;;;4.96;90.38;100101.13;5005892;28;20214;-83
2023/01/30 11:15:23;;;;;;;10.50;2.50;;;;;;;5.07;89.51;100094.19;5004271;28;20286;-83
2023/01/30 11:17:50;;;;;;;9.90;2.30;;;;;;;5.22;87.09;100131.28;5003990;28;20207;-80
2023/01/30 11:20:20;;;;;;;7.30;1.80;;;;;;;5.44;85.96;100170.91;5002547;28;21324;-82
2023/01/30 11:22:49;;;;;;;5.50;2.10;;;;;;;5.53;84.43;100207.09;5000604;28;20227;-82
2023/01/30 11:25:20;;;;;;;4.20;1.90;;;;;;;5.57;81.75;100264.06;5002790;28;20206;-79
2023/01/30 11:27:54;;;;;;;6.47;1.53;;;;;;;5.64;81.32;100289.97;5003319;28;20964;-81
2023/01/30 11:30:22;;;;;;;6.63;2.60;;;;;;;5.75;79.55;100332.25;5003722;28;20200;-82
2023/01/30 11:32:50;;;;;;;4.20;1.80;;;;;;;5.89;80.17;100373.69;5000877;28;20200;-81
2023/01/30 11:35:28;;;;;;;7.33;1.67;;;;;;;5.92;79.87;100395.25;5005346;28;20303;-82
2023/01/30 11:38:12;;;;;;;5.43;1.50;;;;;;;5.74;81.43;100385.75;5002237;28;20201;-81
2023/01/30 11:40:40;;;;;;;4.73;1.40;;;;;;;5.66;81.67;100368.50;5008730;28;20210;-82
2023/01/30 11:43:12;;;;;;;4.87;1.70;;;;;;;5.61;80.79;100354.69;5010101;28;20928;-82
2023/01/30 11:45:41;;;;;;;11.23;1.87;;;;;;;5.82;82.59;100338.28;5004497;28;20292;-81
2023/01/30 11:48:15;;;;;;;4.57;1.60;;;;;;;5.63;82.12;100329.66;5005497;28;20207;-81
2023/01/30 11:50:44;;;;;;;7.20;1.80;;;;;;;5.64;80.91;100323.63;5006338;28;20206;-81
2023/01/30 11:53:20;;;;;;;8.03;1.97;;;;;;;5.68;80.91;100346.91;5005516;28;20667;-82